createdAt,value
2018-10-07T00:01:14.446Z,22.96
2018-10-07T00:03:44.423Z,23.09
2018-10-07T00:06:14.483Z,22.85
2018-10-07T00:08:44.074Z,22.81
2018-10-07T00:11:14.291Z,22.91
2018-10-07T00:13:44.845Z,22.96
2018-10-07T00:16:16.237Z,22.87
2018-10-07T00:18:46.488Z,22.78
2018-10-07T00:21:16.179Z,22.81
2018-10-07T00:23:45.770Z,22.77
2018-10-07T00:26:16.221Z,22.67
2018-10-07T00:28:46.827Z,22.50
2018-10-07T00:31:16.954Z,22.43
2018-10-07T00:33:46.618Z,22.42
2018-10-07T00:36:16.343Z,22.32
2018-10-07T00:38:47.259Z,22.48
2018-10-07T00:41:16.827Z,22.53
2018-10-07T00:43:46.480Z,22.67
2018-10-07T00:46:16.556Z,22.76
2018-10-07T00:48:46.013Z,22.88
2018-10-07T00:51:16.171Z,22.96
2018-10-07T00:53:52.559Z,23.06
2018-10-07T00:56:24.072Z,23.13
2018-10-07T00:58:55.088Z,23.11
2018-10-07T01:01:24.696Z,23.04
2018-10-07T01:03:55.945Z,22.34
2018-10-07T01:06:27.010Z,22.89
2018-10-07T01:08:57.193Z,22.84
2018-10-07T01:11:29.328Z,22.89
2018-10-07T01:14:01.778Z,22.87
2018-10-07T01:16:31.368Z,22.82
2018-10-07T01:19:02.053Z,22.68
2018-10-07T01:21:42.885Z,22.79
2018-10-07T01:24:14.478Z,22.79
2018-10-07T01:26:45.034Z,22.74
2018-10-07T01:29:19.997Z,22.68
2018-10-07T01:31:49.552Z,22.56
2018-10-07T01:34:19.790Z,22.52
2018-10-07T01:36:49.506Z,22.52
2018-10-07T01:39:19.997Z,22.42
2018-10-07T01:41:51.880Z,22.52
2018-10-07T01:44:22.222Z,22.51
2018-10-07T01:46:52.807Z,22.43
2018-10-07T01:49:24.292Z,22.28
2018-10-07T01:51:54.361Z,21.45
2018-10-07T01:54:26.233Z,21.95
2018-10-07T01:56:55.781Z,21.85
2018-10-07T01:59:28.527Z,21.76
2018-10-07T02:02:00.883Z,21.75
2018-10-07T02:04:33.717Z,21.76
2018-10-07T02:07:05.473Z,21.74
2018-10-07T02:09:35.027Z,21.73
2018-10-07T02:12:06.006Z,21.66
2018-10-07T02:14:35.646Z,21.56
2018-10-07T02:17:05.340Z,21.44
2018-10-07T02:19:56.365Z,21.42
2018-10-07T02:22:26.847Z,21.37
2018-10-07T02:24:58.836Z,21.30
2018-10-07T02:27:29.567Z,21.24
2018-10-07T02:30:00.228Z,21.31
2018-10-07T02:32:29.862Z,21.33
2018-10-07T02:35:01.451Z,21.30
2018-10-07T02:37:32.221Z,21.34
2018-10-07T02:40:01.718Z,21.42
2018-10-07T02:42:31.572Z,21.44
2018-10-07T02:45:02.102Z,21.36
2018-10-07T02:47:31.582Z,21.30
2018-10-07T02:50:06.545Z,21.30
2018-10-07T02:52:41.178Z,21.25
2018-10-07T02:55:10.745Z,21.15
2018-10-07T02:57:40.828Z,21.27
2018-10-07T03:00:14.461Z,21.28
2018-10-07T03:02:45.048Z,21.20
2018-10-07T03:05:16.454Z,21.22
2018-10-07T03:07:47.912Z,21.24
2018-10-07T03:10:18.177Z,20.81
2018-10-07T03:12:47.984Z,21.22
2018-10-07T03:15:23.740Z,21.45
2018-10-07T03:17:54.736Z,21.73
2018-10-07T03:20:29.043Z,22.08
2018-10-07T03:22:59.781Z,22.05
2018-10-07T03:25:30.091Z,21.95
2018-10-07T03:28:00.879Z,21.83
2018-10-07T03:30:37.460Z,21.21
2018-10-07T03:33:08.286Z,21.63
2018-10-07T03:35:38.985Z,21.64
2018-10-07T03:38:10.382Z,21.59
2018-10-07T03:40:41.850Z,21.71
2018-10-07T03:43:12.607Z,21.61
2018-10-07T03:45:42.803Z,21.46
2018-10-07T03:48:13.105Z,21.51
2018-10-07T03:50:45.185Z,21.46
2018-10-07T03:53:15.652Z,21.57
2018-10-07T03:55:50.537Z,21.59
2018-10-07T03:58:23.836Z,21.68
2018-10-07T04:03:30.057Z,21.47
2018-10-07T04:05:59.865Z,21.31
2018-10-07T04:08:29.433Z,21.27
2018-10-07T04:10:58.980Z,21.22
2018-10-07T04:13:30.099Z,21.54
2018-10-07T04:16:00.672Z,21.62
2018-10-07T04:18:30.314Z,21.52
2018-10-07T04:20:59.884Z,21.44
2018-10-07T04:23:33.144Z,21.38
2018-10-07T04:26:03.892Z,21.20
2018-10-07T04:28:33.700Z,21.17
2018-10-07T04:31:03.264Z,21.20
2018-10-07T04:33:33.289Z,21.10
2018-10-07T04:36:02.790Z,20.99
2018-10-07T04:38:33.585Z,21.00
2018-10-07T04:41:05.584Z,20.87
2018-10-07T04:43:35.230Z,20.80
2018-10-07T04:46:07.832Z,20.82
2018-10-07T04:48:39.790Z,20.86
2018-10-07T04:51:10.881Z,20.79
2018-10-07T04:53:41.520Z,20.80
2018-10-07T04:56:11.335Z,20.82
2018-10-07T04:58:40.882Z,20.93
2018-10-07T05:01:12.262Z,20.95
2018-10-07T05:03:41.759Z,21.00
2018-10-07T05:06:12.214Z,21.03
2018-10-07T05:08:43.190Z,21.06
2018-10-07T05:11:19.598Z,21.09
2018-10-07T05:13:53.242Z,21.06
2018-10-07T05:16:39.278Z,21.04
2018-10-07T05:19:10.180Z,21.06
2018-10-07T05:21:40.753Z,21.09
2018-10-07T05:24:13.354Z,21.04
2018-10-07T05:26:43.392Z,21.15
2018-10-07T05:29:13.036Z,21.11
2018-10-07T05:31:42.562Z,21.06
2018-10-07T05:34:13.629Z,20.94
2018-10-07T05:36:45.095Z,20.88
2018-10-07T05:39:16.431Z,20.99
2018-10-07T05:41:45.977Z,21.08
2018-10-07T05:44:15.552Z,21.13
2018-10-07T05:46:46.395Z,21.07
2018-10-07T05:49:15.955Z,21.05
2018-10-07T05:51:47.745Z,21.18
2018-10-07T05:54:25.613Z,20.93
2018-10-07T05:56:56.020Z,20.82
2018-10-07T05:59:25.700Z,20.81
2018-10-07T06:01:57.794Z,21.24
2018-10-07T06:04:36.536Z,20.97
2018-10-07T06:07:06.125Z,21.18
2018-10-07T06:09:36.924Z,21.51
2018-10-07T06:12:07.575Z,21.75
2018-10-07T06:14:48.377Z,22.14
2018-10-07T06:17:19.507Z,22.55
2018-10-07T06:19:51.810Z,22.81
2018-10-07T06:22:23.741Z,22.96
2018-10-07T06:24:59.100Z,23.20
2018-10-07T06:27:33.065Z,23.42
2018-10-07T06:30:03.940Z,23.69
2018-10-07T06:32:33.490Z,23.87
2018-10-07T06:35:03.055Z,24.06
2018-10-07T06:37:32.675Z,24.29
2018-10-07T06:40:03.959Z,24.49
2018-10-07T06:45:13.167Z,24.56
2018-10-07T06:47:45.328Z,24.54
2018-10-07T06:50:16.219Z,24.78
2018-10-07T06:52:49.517Z,24.75
2018-10-07T06:55:22.672Z,24.91
2018-10-07T06:57:52.860Z,25.00
2018-10-07T07:00:24.377Z,24.91
2018-10-07T07:02:56.247Z,24.83
2018-10-07T07:05:30.108Z,23.97
2018-10-07T07:08:04.443Z,24.55
2018-10-07T07:10:35.402Z,24.50
2018-10-07T07:13:05.901Z,24.52
2018-10-07T07:15:35.625Z,24.38
2018-10-07T07:18:05.621Z,24.37
2018-10-07T07:20:35.923Z,24.36
2018-10-07T07:23:05.620Z,24.39
2018-10-07T07:25:38.075Z,23.63
2018-10-07T07:28:08.728Z,24.19
2018-10-07T07:30:38.983Z,24.09
2018-10-07T07:33:09.651Z,24.18
2018-10-07T07:35:39.283Z,24.30
2018-10-07T07:38:10.349Z,24.39
2018-10-07T07:40:40.317Z,24.41
2018-10-07T07:43:10.969Z,23.78
2018-10-07T07:45:41.370Z,24.44
2018-10-07T07:48:11.421Z,24.49
2018-10-07T07:50:41.891Z,24.48
2018-10-07T07:53:13.985Z,24.54
2018-10-07T07:55:44.923Z,24.13
2018-10-07T07:58:14.766Z,24.96
2018-10-07T08:00:44.504Z,25.09
2018-10-07T08:03:14.745Z,25.03
2018-10-07T08:05:46.822Z,24.93
2018-10-07T08:08:17.341Z,25.09
2018-10-07T08:10:47.413Z,25.17
2018-10-07T08:13:17.186Z,25.23
2018-10-07T08:15:47.645Z,25.25
2018-10-07T08:18:18.083Z,25.35
2018-10-07T08:20:48.100Z,25.16
2018-10-07T08:23:22.168Z,25.18
2018-10-07T08:25:52.701Z,25.25
2018-10-07T08:28:22.447Z,25.19
2018-10-07T08:30:52.420Z,25.43
2018-10-07T08:33:26.172Z,25.62
2018-10-07T08:35:57.357Z,25.70
2018-10-07T08:38:32.523Z,25.60
2018-10-07T08:41:07.375Z,25.58
2018-10-07T08:43:43.772Z,25.71
2018-10-07T08:46:13.390Z,25.81
2018-10-07T08:48:43.609Z,25.99
2018-10-07T08:51:20.572Z,25.87
2018-10-07T08:53:52.472Z,25.95
2018-10-07T08:56:22.097Z,25.98
2018-10-07T08:58:51.980Z,26.00
2018-10-07T09:01:22.203Z,26.17
2018-10-07T09:03:53.181Z,26.26
2018-10-07T09:06:28.470Z,26.16
2018-10-07T09:08:59.365Z,26.19
2018-10-07T09:11:30.424Z,26.18
2018-10-07T09:14:03.883Z,26.20
2018-10-07T09:16:33.739Z,26.10
2018-10-07T09:19:04.959Z,26.04
2018-10-07T09:21:35.651Z,25.89
2018-10-07T09:24:09.105Z,26.02
2018-10-07T09:26:38.815Z,26.25
2018-10-07T09:29:08.835Z,26.28
2018-10-07T09:31:38.539Z,26.27
2018-10-07T09:34:08.487Z,26.36
2018-10-07T09:36:39.266Z,26.61
2018-10-07T09:39:11.776Z,26.80
2018-10-07T09:41:42.509Z,26.71
2018-10-07T09:44:12.255Z,26.86
2018-10-07T09:46:43.755Z,27.03
2018-10-07T09:49:15.615Z,27.05
2018-10-07T09:51:45.274Z,27.10
2018-10-07T09:54:15.078Z,27.12
2018-10-07T09:56:45.817Z,26.92
2018-10-07T09:59:16.325Z,26.77
2018-10-07T10:01:47.435Z,26.26
2018-10-07T10:04:21.885Z,26.05
2018-10-07T10:06:52.728Z,25.92
2018-10-07T10:09:25.215Z,25.82
2018-10-07T10:11:55.273Z,25.60
2018-10-07T10:14:25.466Z,25.55
2018-10-07T10:16:58.871Z,25.67
2018-10-07T10:19:51.523Z,25.63
2018-10-07T10:22:34.760Z,25.61
2018-10-07T10:25:09.435Z,25.65
2018-10-07T10:27:46.077Z,25.79
2018-10-07T10:30:26.552Z,25.80
2018-10-07T10:33:09.210Z,25.76
2018-10-07T10:35:59.460Z,25.66
2018-10-07T10:38:39.917Z,25.75
2018-10-07T10:41:17.988Z,25.65
2018-10-07T10:43:58.073Z,25.63
2018-10-07T10:46:54.846Z,25.59
2018-10-07T10:50:34.509Z,26.07
2018-10-07T10:53:29.485Z,26.02
2018-10-07T10:56:10.861Z,26.10
2018-10-07T11:01:46.311Z,25.73
2018-10-07T11:04:22.279Z,25.65
2018-10-07T11:09:08.536Z,25.55
2018-10-07T11:11:59.751Z,25.33
2018-10-07T11:16:43.337Z,25.51
2018-10-07T11:20:23.739Z,25.87
2018-10-07T11:23:18.229Z,26.20
2018-10-07T11:25:58.868Z,26.46
2018-10-07T11:30:40.609Z,26.74
2018-10-07T11:33:23.889Z,27.35
2018-10-07T11:38:43.907Z,26.91
2018-10-07T11:41:37.508Z,26.84
2018-10-07T11:44:21.405Z,26.85
2018-10-07T11:49:08.191Z,26.85
2018-10-07T11:53:47.287Z,26.73
2018-10-07T11:56:17.561Z,26.81
2018-10-07T11:58:47.642Z,26.94
2018-10-07T12:01:19.507Z,26.92
2018-10-07T12:03:53.834Z,26.88
2018-10-07T12:06:25.225Z,26.85
2018-10-07T12:08:55.585Z,27.02
2018-10-07T12:11:29.026Z,26.53
2018-10-07T12:14:01.879Z,27.08
2018-10-07T12:16:32.584Z,26.93
2018-10-07T12:19:04.646Z,27.16
2018-10-07T12:21:36.374Z,27.13
2018-10-07T12:24:06.866Z,27.01
2018-10-07T12:26:41.438Z,27.04
2018-10-07T12:29:12.051Z,27.28
2018-10-07T12:31:43.849Z,27.17
2018-10-07T12:34:18.343Z,27.55
2018-10-07T12:36:49.530Z,27.84
2018-10-07T12:39:24.894Z,27.92
2018-10-07T12:41:57.396Z,27.86
2018-10-07T12:44:27.942Z,27.48
2018-10-07T12:47:02.018Z,27.34
2018-10-07T12:49:38.867Z,27.39
2018-10-07T12:52:10.593Z,27.46
2018-10-07T12:54:41.381Z,27.17
2018-10-07T12:57:11.863Z,26.91
2018-10-07T12:59:43.836Z,26.57
2018-10-07T13:02:13.985Z,26.40
2018-10-07T13:04:46.927Z,26.51
2018-10-07T13:07:19.746Z,26.52
2018-10-07T13:09:51.187Z,26.30
2018-10-07T13:12:20.843Z,26.20
2018-10-07T13:14:51.152Z,25.97
2018-10-07T13:17:21.372Z,25.92
2018-10-07T13:19:53.594Z,25.78
2018-10-07T13:22:26.644Z,25.81
2018-10-07T13:24:57.098Z,25.66
2018-10-07T13:27:29.293Z,25.55
2018-10-07T13:30:00.675Z,25.31
2018-10-07T13:32:34.562Z,25.07
2018-10-07T13:35:07.605Z,24.93
2018-10-07T13:37:38.374Z,24.83
2018-10-07T13:40:09.255Z,24.68
2018-10-07T13:42:43.363Z,24.49
2018-10-07T13:45:16.274Z,24.50
2018-10-07T13:47:47.585Z,24.26
2018-10-07T13:50:19.317Z,24.03
2018-10-07T13:52:51.876Z,23.89
2018-10-07T13:55:21.501Z,23.85
2018-10-07T13:57:52.857Z,23.75
2018-10-07T14:00:27.230Z,23.77
2018-10-07T14:03:01.175Z,23.80
2018-10-07T14:05:40.076Z,23.81
2018-10-07T14:08:10.791Z,23.68
2018-10-07T14:10:43.119Z,23.52
2018-10-07T14:13:13.187Z,23.43
2018-10-07T14:15:43.830Z,23.41
2018-10-07T14:18:14.696Z,23.44
2018-10-07T14:20:47.433Z,23.56
2018-10-07T14:23:17.773Z,23.59
2018-10-07T14:25:49.144Z,23.44
2018-10-07T14:28:21.482Z,23.39
2018-10-07T14:30:53.541Z,23.40
2018-10-07T14:33:25.028Z,23.33
2018-10-07T14:35:57.680Z,23.25
2018-10-07T14:38:29.334Z,23.27
2018-10-07T14:41:00.199Z,23.31
2018-10-07T14:43:31.429Z,23.42
2018-10-07T14:46:01.875Z,23.51
2018-10-07T14:48:33.585Z,23.30
2018-10-07T14:51:06.024Z,23.29
2018-10-07T14:54:00.483Z,23.30
2018-10-07T14:56:31.061Z,23.33
2018-10-07T14:59:06.601Z,23.32
2018-10-07T15:01:37.955Z,23.26
2018-10-07T15:04:08.705Z,23.59
2018-10-07T15:06:41.051Z,23.48
2018-10-07T15:09:12.475Z,23.43
2018-10-07T15:11:43.245Z,23.76
2018-10-07T15:14:15.622Z,23.90
2018-10-07T15:16:47.679Z,24.22
2018-10-07T15:19:19.122Z,24.45
2018-10-07T15:21:50.668Z,24.45
2018-10-07T15:24:21.225Z,24.30
2018-10-07T15:26:52.667Z,24.23
2018-10-07T15:29:24.247Z,24.20
2018-10-07T15:31:55.953Z,24.24
2018-10-07T15:34:26.923Z,24.31
2018-10-07T15:36:57.651Z,24.17
2018-10-07T15:39:29.162Z,24.46
2018-10-07T15:42:00.944Z,24.34
2018-10-07T15:44:34.126Z,24.28
2018-10-07T15:47:07.747Z,24.36
2018-10-07T15:49:40.637Z,24.42
2018-10-07T15:52:12.156Z,24.48
2018-10-07T15:54:44.524Z,24.57
2018-10-07T15:57:17.241Z,24.33
2018-10-07T15:59:51.790Z,24.22
2018-10-07T16:02:24.489Z,24.09
2018-10-07T16:04:57.585Z,24.13
2018-10-07T16:07:30.469Z,24.14
2018-10-07T16:10:02.851Z,23.96
2018-10-07T16:12:35.345Z,23.64
2018-10-07T16:15:08.726Z,23.49
2018-10-07T16:17:40.911Z,23.29
2018-10-07T16:20:15.220Z,23.01
2018-10-07T16:23:04.479Z,22.86
2018-10-07T16:25:39.578Z,22.67
2018-10-07T16:28:16.036Z,22.49
2018-10-07T16:30:47.702Z,22.05
2018-10-07T16:33:20.890Z,22.39
2018-10-07T16:36:08.525Z,22.30
2018-10-07T16:38:41.193Z,22.22
2018-10-07T16:41:15.237Z,22.06
2018-10-07T16:43:46.644Z,21.91
2018-10-07T16:46:19.282Z,21.90
2018-10-07T16:48:51.375Z,21.87
2018-10-07T16:51:24.238Z,21.94
2018-10-07T16:53:58.456Z,21.81
2018-10-07T16:56:32.361Z,21.74
2018-10-07T16:59:08.830Z,21.80
2018-10-07T17:01:40.405Z,21.73
2018-10-07T17:04:11.975Z,21.79
2018-10-07T17:06:45.197Z,21.46
2018-10-07T17:09:16.902Z,21.88
2018-10-07T17:11:48.476Z,22.05
2018-10-07T17:14:20.552Z,21.98
2018-10-07T17:16:54.456Z,21.97
2018-10-07T17:19:27.285Z,22.04
2018-10-07T17:22:00.601Z,22.10
2018-10-07T17:24:36.814Z,22.08
2018-10-07T17:27:11.265Z,22.04
2018-10-07T17:29:45.085Z,22.16
2018-10-07T17:32:17.441Z,22.18
2018-10-07T17:34:49.953Z,22.17
2018-10-07T17:37:21.682Z,22.09
2018-10-07T17:39:54.017Z,21.91
2018-10-07T17:42:27.520Z,21.74
2018-10-07T17:45:00.129Z,21.78
2018-10-07T17:47:33.205Z,21.80
2018-10-07T17:50:07.410Z,21.71
2018-10-07T17:52:42.338Z,21.54
2018-10-07T17:55:15.285Z,21.39
2018-10-07T17:57:49.557Z,20.92
2018-10-07T18:00:23.081Z,21.33
2018-10-07T18:02:55.364Z,20.94
2018-10-07T18:05:28.693Z,21.28
2018-10-07T18:08:01.385Z,21.28
2018-10-07T18:10:33.921Z,21.06
2018-10-07T18:13:15.816Z,21.29
2018-10-07T18:15:56.934Z,21.07
2018-10-07T18:18:30.026Z,21.02
2018-10-07T18:21:02.709Z,20.94
2018-10-07T18:23:34.933Z,20.82
2018-10-07T18:26:08.509Z,20.99
2018-10-07T18:28:41.260Z,20.79
2018-10-07T18:31:16.022Z,20.87
2018-10-07T18:33:49.432Z,20.70
2018-10-07T18:36:21.393Z,20.75
2018-10-07T18:38:54.587Z,20.72
2018-10-07T18:41:27.394Z,20.68
2018-10-07T18:44:00.394Z,20.64
2018-10-07T18:46:34.104Z,20.62
2018-10-07T18:49:09.999Z,20.57
2018-10-07T18:51:41.135Z,20.48
2018-10-07T18:54:11.761Z,20.53
2018-10-07T18:56:42.512Z,20.54
2018-10-07T18:59:13.202Z,20.43
2018-10-07T19:01:45.208Z,20.27
2018-10-07T19:04:17.705Z,20.40
2018-10-07T19:06:51.845Z,20.45
2018-10-07T19:09:24.318Z,20.43
2018-10-07T19:11:58.406Z,20.43
2018-10-07T19:14:31.270Z,20.44
2018-10-07T19:17:04.400Z,20.37
2018-10-07T19:19:39.011Z,20.08
2018-10-07T19:22:11.641Z,20.26
2018-10-07T19:24:42.738Z,20.29
2018-10-07T19:27:14.514Z,20.23
2018-10-07T19:29:49.266Z,20.19
2018-10-07T19:32:21.415Z,20.19
2018-10-07T19:34:55.031Z,20.26
2018-10-07T19:37:27.736Z,20.12
2018-10-07T19:39:59.605Z,20.11
2018-10-07T19:42:35.396Z,19.53
2018-10-07T19:45:13.464Z,20.17
2018-10-07T19:47:44.355Z,20.20
2018-10-07T19:50:17.276Z,20.19
2018-10-07T19:52:48.375Z,20.08
2018-10-07T19:55:19.604Z,20.14
2018-10-07T19:57:50.386Z,20.02
2018-10-07T20:00:24.692Z,19.90
2018-10-07T20:02:57.109Z,19.96
2018-10-07T20:05:30.558Z,19.95
2018-10-07T20:08:02.630Z,19.92
2018-10-07T20:10:35.193Z,19.88
2018-10-07T20:13:07.302Z,19.90
2018-10-07T20:18:44.690Z,19.90
2018-10-07T20:21:17.368Z,19.84
2018-10-07T20:23:48.486Z,19.94
2018-10-07T20:26:26.855Z,19.94
2018-10-07T20:29:00.612Z,19.88
2018-10-07T20:31:31.773Z,19.83
2018-10-07T20:34:02.565Z,19.83
2018-10-07T20:36:33.927Z,19.84
2018-10-07T20:39:06.012Z,19.91
2018-10-07T20:41:36.794Z,19.79
2018-10-07T20:44:08.332Z,19.67
2018-10-07T20:46:41.016Z,19.76
2018-10-07T20:49:13.439Z,19.69
2018-10-07T20:51:45.735Z,19.71
2018-10-07T20:54:18.340Z,19.66
2018-10-07T20:56:49.711Z,19.64
2018-10-07T20:59:28.334Z,19.70
2018-10-07T21:02:01.198Z,19.67
2018-10-07T21:04:34.311Z,19.69
2018-10-07T21:07:08.329Z,19.60
2018-10-07T21:09:41.492Z,19.60
2018-10-07T21:12:12.105Z,19.57
2018-10-07T21:14:43.428Z,19.71
2018-10-07T21:17:16.816Z,19.75
2018-10-07T21:19:48.152Z,19.74
2018-10-07T21:22:22.917Z,19.64
2018-10-07T21:24:54.352Z,19.65
2018-10-07T21:27:24.979Z,19.63
2018-10-07T21:29:56.609Z,19.59
2018-10-07T21:32:28.011Z,19.62
2018-10-07T21:34:59.977Z,19.61
2018-10-07T21:37:29.603Z,19.78
2018-10-07T21:40:02.583Z,19.72
2018-10-07T21:42:33.025Z,19.73
2018-10-07T21:45:06.667Z,19.83
2018-10-07T21:47:47.478Z,19.84
2018-10-07T21:50:20.239Z,19.94
2018-10-07T21:52:52.938Z,20.01
2018-10-07T21:55:24.334Z,19.98
2018-10-07T21:57:55.206Z,20.00
2018-10-07T22:00:26.453Z,20.12
2018-10-07T22:03:00.069Z,20.02
2018-10-07T22:05:32.073Z,19.96
2018-10-07T22:08:05.758Z,20.02
2018-10-07T22:10:38.152Z,19.97
2018-10-07T22:13:09.363Z,20.00
2018-10-07T22:15:44.596Z,20.01
2018-10-07T22:18:17.910Z,19.93
2018-10-07T22:20:48.454Z,19.98
2018-10-07T22:23:19.722Z,19.79
2018-10-07T22:25:50.509Z,19.72
2018-10-07T22:28:21.097Z,19.69
2018-10-07T22:30:56.276Z,19.67
2018-10-07T22:33:27.637Z,19.66
2018-10-07T22:35:59.279Z,19.64
2018-10-07T22:38:33.590Z,19.54
2018-10-07T22:41:05.327Z,19.48
2018-10-07T22:43:38.294Z,19.43
2018-10-07T22:46:10.103Z,19.40
2018-10-07T22:48:42.137Z,19.39
2018-10-07T22:51:12.348Z,19.39
2018-10-07T22:53:44.297Z,19.36
2018-10-07T22:56:15.425Z,19.33
2018-10-07T22:58:47.640Z,19.23
2018-10-07T23:01:18.803Z,19.27
2018-10-07T23:03:49.675Z,19.17
2018-10-07T23:06:22.418Z,19.20
2018-10-07T23:08:54.548Z,19.22
2018-10-07T23:11:27.101Z,19.23
2018-10-07T23:13:59.094Z,19.16
2018-10-07T23:16:30.114Z,19.02
2018-10-07T23:19:01.969Z,19.06
2018-10-07T23:21:33.311Z,19.07
2018-10-07T23:24:05.878Z,19.03
2018-10-07T23:26:37.075Z,19.00
2018-10-07T23:29:07.533Z,18.94
2018-10-07T23:31:39.059Z,18.99
2018-10-07T23:34:10.929Z,19.00
2018-10-07T23:36:42.807Z,18.92
2018-10-07T23:39:17.255Z,18.95
2018-10-07T23:41:47.860Z,18.96
2018-10-07T23:44:17.615Z,18.99
2018-10-07T23:46:48.451Z,19.05
2018-10-07T23:49:19.548Z,19.04
2018-10-07T23:51:53.577Z,19.03
2018-10-07T23:54:25.822Z,19.04
2018-10-07T23:56:56.399Z,19.12
2018-10-07T23:59:34.576Z,19.18
